Sao Joao de Meriti, Brazil
Current Conditions -  °F | °C
As of 7:00 PM on Monday 20 Oct 2014 (Local Time) from SBAF Reporting Station
Broken Clouds Broken Clouds  
Wind Chill: 75°   Ceiling: 4000
Heat Index: 75°   Visibility: 6mi
Dew Point: 66°   Wind: 2mph
Humidity: 73%   Direction: 280°W
Pressure: 30"   Gusts: NA
Location:  22.8°S, 43.35°W
Report Text: SBAF 202200Z 28002KT 9999 SCT020 BKN040 24/19 Q1016
Loading
Personal Weather Stations






























Interactive Weather Map
Tropical Storm Tracking
New forecast layout! Learn more

10-Day Weather Forecast

Advertisements
Track Severe Weather on mobile